createdAt,value
2019-05-20T00:00:45.514Z,91.60
2019-05-20T00:03:14.253Z,92.47
2019-05-20T00:05:43.217Z,83.33
2019-05-20T00:08:12.217Z,86.08
2019-05-20T00:10:40.936Z,86.67
2019-05-20T00:13:09.658Z,77.70
2019-05-20T00:15:38.436Z,84.92
2019-05-20T00:18:07.189Z,79.47
2019-05-20T00:20:35.914Z,82.60
2019-05-20T00:23:04.593Z,80.40
2019-05-20T00:25:33.321Z,66.70
2019-05-20T00:28:02.064Z,64.62
2019-05-20T00:30:30.874Z,58.98
2019-05-20T00:32:59.609Z,57.80
2019-05-20T00:35:28.358Z,54.33
2019-05-20T00:37:57.139Z,53.45
2019-05-20T00:40:25.893Z,51.58
2019-05-20T00:42:54.618Z,45.90
2019-05-20T00:45:23.342Z,47.27
2019-05-20T00:47:52.355Z,46.58
2019-05-20T00:50:21.218Z,43.25
2019-05-20T00:52:50.034Z,45.75
2019-05-20T00:55:24.711Z,40.35
2019-05-20T00:57:53.526Z,45.75
2019-05-20T01:00:22.809Z,42.73
2019-05-20T01:02:56.829Z,40.25
2019-05-20T01:05:22.349Z,43.95
2019-05-20T01:07:51.149Z,37.42
2019-05-20T01:10:20.050Z,39.15
2019-05-20T01:12:48.749Z,39.25
2019-05-20T01:15:18.234Z,35.00
2019-05-20T01:17:46.958Z,32.73
2019-05-20T01:20:16.140Z,31.45
2019-05-20T01:22:44.873Z,36.33
2019-05-20T01:25:14.091Z,33.88
2019-05-20T01:27:42.805Z,33.50
2019-05-20T01:30:12.800Z,37.53
2019-05-20T01:32:41.538Z,40.92
2019-05-20T01:35:10.614Z,41.58
2019-05-20T01:37:39.362Z,48.02
2019-05-20T01:40:08.760Z,43.17
2019-05-20T01:42:37.505Z,41.48
2019-05-20T01:45:06.962Z,36.00
2019-05-20T01:47:36.038Z,39.05
2019-05-20T01:50:06.635Z,38.98
2019-05-20T01:52:35.436Z,40.28
2019-05-20T01:55:06.528Z,37.90
2019-05-20T01:57:35.253Z,42.03
2019-05-20T02:00:09.194Z,39.08
2019-05-20T02:02:37.978Z,36.38
2019-05-20T02:05:07.866Z,33.50
2019-05-20T02:07:36.600Z,32.58
2019-05-20T02:10:07.262Z,34.08
2019-05-20T02:12:36.011Z,30.77
2019-05-20T02:15:08.716Z,30.10
2019-05-20T02:17:37.451Z,32.58
2019-05-20T02:20:07.578Z,29.40
2019-05-20T02:22:36.282Z,31.45
2019-05-20T02:25:05.659Z,29.37
2019-05-20T02:27:34.341Z,26.42
2019-05-20T02:30:03.559Z,27.42
2019-05-20T02:32:32.301Z,26.87
2019-05-20T02:35:01.065Z,32.20
2019-05-20T02:37:29.803Z,35.60
2019-05-20T02:39:58.559Z,31.62
2019-05-20T02:42:27.388Z,34.03
2019-05-20T02:44:56.150Z,31.95
2019-05-20T02:47:24.950Z,34.13
2019-05-20T02:49:53.674Z,33.38
2019-05-20T02:52:22.434Z,37.08
2019-05-20T02:54:51.170Z,31.93
2019-05-20T02:57:19.923Z,31.45
2019-05-20T02:59:48.651Z,31.25
2019-05-20T03:02:17.380Z,34.27
2019-05-20T03:04:46.122Z,35.10
2019-05-20T03:07:14.855Z,34.30
2019-05-20T03:09:43.590Z,33.35
2019-05-20T03:12:12.338Z,31.75
2019-05-20T03:14:40.991Z,30.88
2019-05-20T03:17:09.722Z,34.43
2019-05-20T03:19:38.476Z,33.08
2019-05-20T03:22:07.226Z,35.40
2019-05-20T03:24:35.992Z,31.60
2019-05-20T03:27:04.714Z,34.67
2019-05-20T03:29:33.471Z,32.75
2019-05-20T03:32:02.292Z,33.00
2019-05-20T03:34:54.190Z,36.88
2019-05-20T03:37:01.367Z,28.40
2019-05-20T03:39:31.421Z,30.60
2019-05-20T03:42:00.072Z,33.10
2019-05-20T03:44:30.295Z,32.42
2019-05-20T03:46:59.032Z,32.28
2019-05-20T03:49:27.842Z,36.60
2019-05-20T03:51:56.587Z,31.40
2019-05-20T03:54:25.401Z,34.90
2019-05-20T03:56:54.152Z,35.75
2019-05-20T03:59:22.937Z,32.55
2019-05-20T04:01:51.672Z,29.67
2019-05-20T04:04:20.394Z,33.55
2019-05-20T04:06:49.148Z,33.38
2019-05-20T04:09:17.877Z,34.48
2019-05-20T04:11:46.612Z,30.23
2019-05-20T04:14:15.349Z,32.75
2019-05-20T04:16:44.019Z,31.15
2019-05-20T04:19:12.751Z,30.95
2019-05-20T04:21:41.513Z,31.45
2019-05-20T04:24:10.362Z,30.62
2019-05-20T04:26:39.048Z,29.60
2019-05-20T04:29:07.766Z,34.45
2019-05-20T04:31:36.486Z,29.80
2019-05-20T04:34:05.225Z,29.77
2019-05-20T04:36:33.950Z,30.40
2019-05-20T04:39:02.683Z,31.05
2019-05-20T04:41:31.508Z,31.12
2019-05-20T04:44:00.214Z,36.20
2019-05-20T04:46:29.311Z,30.17
2019-05-20T04:48:58.002Z,32.58
2019-05-20T04:51:26.715Z,32.83
2019-05-20T04:53:55.439Z,35.60
2019-05-20T04:56:24.185Z,31.82
2019-05-20T04:58:52.909Z,31.07
2019-05-20T05:01:21.645Z,32.95
2019-05-20T05:03:50.373Z,29.65
2019-05-20T05:06:19.093Z,31.10
2019-05-20T05:08:47.832Z,29.20
2019-05-20T05:11:17.682Z,32.08
2019-05-20T05:13:46.575Z,32.70
2019-05-20T05:16:15.380Z,27.05
2019-05-20T05:18:44.290Z,29.87
2019-05-20T05:21:13.088Z,26.40
2019-05-20T05:23:41.886Z,28.85
2019-05-20T05:26:10.574Z,24.95
2019-05-20T05:28:39.294Z,26.23
2019-05-20T05:31:08.041Z,27.42
2019-05-20T05:33:36.777Z,26.42
2019-05-20T05:36:05.658Z,28.20
2019-05-20T05:38:34.407Z,28.10
2019-05-20T05:41:03.165Z,27.27
2019-05-20T05:43:31.935Z,27.50
2019-05-20T05:46:00.673Z,27.75
2019-05-20T05:48:29.328Z,28.57
2019-05-20T05:50:58.069Z,28.05
2019-05-20T05:53:26.812Z,24.77
2019-05-20T05:55:55.542Z,28.30
2019-05-20T05:58:24.403Z,23.60
2019-05-20T06:00:53.097Z,24.70
2019-05-20T06:03:21.965Z,26.33
2019-05-20T06:05:50.667Z,23.70
2019-05-20T06:08:19.454Z,21.75
2019-05-20T06:10:48.186Z,20.08
2019-05-20T06:13:16.854Z,20.90
2019-05-20T06:15:45.604Z,23.40
2019-05-20T06:18:14.281Z,28.73
2019-05-20T06:20:43.015Z,20.12
2019-05-20T06:23:11.743Z,19.37
2019-05-20T06:25:40.473Z,20.15
2019-05-20T06:28:09.224Z,17.87
2019-05-20T06:30:41.324Z,16.67
2019-05-20T06:33:10.202Z,18.23
2019-05-20T06:35:39.011Z,18.10
2019-05-20T06:38:09.580Z,20.65
2019-05-20T06:40:38.318Z,20.32
2019-05-20T06:43:07.124Z,19.62
2019-05-20T06:45:35.903Z,18.42
2019-05-20T06:48:04.747Z,20.15
2019-05-20T06:50:33.460Z,19.60
2019-05-20T06:53:02.197Z,18.70
2019-05-20T06:55:30.967Z,19.65
2019-05-20T06:57:59.761Z,21.17
2019-05-20T07:00:34.256Z,19.95
2019-05-20T07:03:03.050Z,18.57
2019-05-20T07:05:31.809Z,20.90
2019-05-20T07:08:01.402Z,19.48
2019-05-20T07:10:30.543Z,18.37
2019-05-20T07:12:59.307Z,18.17
2019-05-20T07:15:28.110Z,17.10
2019-05-20T07:17:56.858Z,21.93
2019-05-20T07:20:25.695Z,22.42
2019-05-20T07:22:56.313Z,19.17
2019-05-20T07:25:25.008Z,17.95
2019-05-20T07:27:53.720Z,20.25
2019-05-20T07:30:22.651Z,19.92
2019-05-20T07:32:51.462Z,22.75
2019-05-20T07:35:30.236Z,18.05
2019-05-20T07:37:50.586Z,20.55
2019-05-20T07:40:30.806Z,19.90
2019-05-20T07:42:59.557Z,21.33
2019-05-20T07:45:30.682Z,20.95
2019-05-20T07:47:59.784Z,22.52
2019-05-20T07:50:29.281Z,22.58
2019-05-20T07:53:00.593Z,24.65
2019-05-20T07:55:32.519Z,22.45
2019-05-20T07:58:04.337Z,21.70
2019-05-20T08:00:33.154Z,22.98
2019-05-20T08:03:02.038Z,24.12
2019-05-20T08:05:30.853Z,22.65
2019-05-20T08:07:59.582Z,22.20
2019-05-20T08:10:28.339Z,21.87
2019-05-20T08:12:57.069Z,22.65
2019-05-20T08:15:25.872Z,22.40
2019-05-20T08:17:54.768Z,23.57
2019-05-20T08:20:24.042Z,20.65
2019-05-20T08:22:52.743Z,25.17
2019-05-20T08:25:21.538Z,20.43
2019-05-20T08:27:50.314Z,22.98
2019-05-20T08:30:24.951Z,20.92
2019-05-20T08:32:53.718Z,21.25
2019-05-20T08:35:23.812Z,22.93
2019-05-20T08:37:52.839Z,24.05
2019-05-20T08:40:21.598Z,23.38
2019-05-20T08:42:50.367Z,24.05
2019-05-20T08:45:19.160Z,24.75
2019-05-20T08:47:48.256Z,21.30
2019-05-20T08:50:17.103Z,23.65
2019-05-20T08:52:45.831Z,25.02
2019-05-20T08:55:15.212Z,22.75
2019-05-20T08:57:44.058Z,23.30
2019-05-20T09:00:16.377Z,21.62
2019-05-20T09:02:46.457Z,21.37
2019-05-20T09:05:15.276Z,25.48
2019-05-20T09:07:44.041Z,21.12
2019-05-20T09:10:13.339Z,20.32
2019-05-20T09:12:42.194Z,22.48
2019-05-20T09:15:11.991Z,22.52
2019-05-20T09:17:41.094Z,18.80
2019-05-20T09:20:11.213Z,20.35
2019-05-20T09:22:40.321Z,20.27
2019-05-20T09:25:10.174Z,21.23
2019-05-20T09:27:39.245Z,19.52
2019-05-20T09:30:09.230Z,22.20
2019-05-20T09:32:42.748Z,19.05
2019-05-20T09:35:09.859Z,19.50
2019-05-20T09:37:38.739Z,19.62
2019-05-20T09:40:08.514Z,37.75
2019-05-20T09:42:40.646Z,16.82
2019-05-20T09:45:07.764Z,18.55
2019-05-20T09:47:36.518Z,18.15
2019-05-20T09:50:06.794Z,18.17
2019-05-20T09:52:35.548Z,18.10
2019-05-20T09:55:06.683Z,17.80
2019-05-20T09:57:35.543Z,18.00
2019-05-20T10:00:07.160Z,17.23
2019-05-20T10:02:38.222Z,17.62
2019-05-20T10:05:06.816Z,14.80
2019-05-20T10:07:35.584Z,14.95
2019-05-20T10:10:07.218Z,16.55
2019-05-20T10:12:46.230Z,15.28
2019-05-20T10:15:08.265Z,15.80
2019-05-20T10:17:36.892Z,15.75
2019-05-20T10:20:09.221Z,14.23
2019-05-20T10:22:37.987Z,14.78
2019-05-20T10:25:07.783Z,22.00
2019-05-20T10:27:36.514Z,16.97
2019-05-20T10:30:07.297Z,21.10
2019-05-20T10:32:36.199Z,20.77
2019-05-20T10:35:06.321Z,16.20
2019-05-20T10:37:35.125Z,18.82
2019-05-20T10:40:05.437Z,18.62
2019-05-20T10:42:34.176Z,18.87
2019-05-20T10:45:03.568Z,15.32
2019-05-20T10:47:32.615Z,14.55
2019-05-20T10:50:01.374Z,14.20
2019-05-20T10:52:30.167Z,17.07
2019-05-20T10:54:58.862Z,17.23
2019-05-20T10:57:27.626Z,13.72
2019-05-20T10:59:56.395Z,14.80
2019-05-20T11:02:25.144Z,21.80
2019-05-20T11:04:53.890Z,27.77
2019-05-20T11:07:22.731Z,22.20
2019-05-20T11:09:51.466Z,16.80
2019-05-20T11:12:20.195Z,17.70
2019-05-20T11:14:49.016Z,14.75
2019-05-20T11:17:17.824Z,15.38
2019-05-20T11:19:46.568Z,14.80
2019-05-20T11:22:15.472Z,14.58
2019-05-20T11:24:44.263Z,14.73
2019-05-20T11:27:13.009Z,13.30
2019-05-20T11:29:41.841Z,12.25
2019-05-20T11:32:10.574Z,14.35
2019-05-20T11:34:39.498Z,18.48
2019-05-20T11:37:08.250Z,16.35
2019-05-20T11:39:37.073Z,21.12
2019-05-20T11:42:05.804Z,22.17
2019-05-20T11:44:37.733Z,21.95
2019-05-20T11:47:06.496Z,25.68
2019-05-20T11:49:36.874Z,24.37
2019-05-20T11:52:05.735Z,23.83
2019-05-20T11:54:34.491Z,16.67
2019-05-20T11:57:03.382Z,18.17
2019-05-20T11:59:32.195Z,18.45
2019-05-20T12:02:03.863Z,19.27
2019-05-20T12:04:32.957Z,19.92
2019-05-20T12:07:01.709Z,17.60
2019-05-20T12:09:30.442Z,21.82
2019-05-20T12:11:59.287Z,25.32
2019-05-20T12:14:28.138Z,34.78
2019-05-20T12:16:56.872Z,29.37
2019-05-20T12:19:25.636Z,30.15
2019-05-20T12:21:54.406Z,28.20
2019-05-20T12:24:23.176Z,28.92
2019-05-20T12:26:52.538Z,35.20
2019-05-20T12:29:21.338Z,31.70
2019-05-20T12:31:50.081Z,33.28
2019-05-20T12:34:18.877Z,30.27
2019-05-20T12:36:47.590Z,37.45
2019-05-20T12:39:17.409Z,37.67
2019-05-20T12:41:47.054Z,36.00
2019-05-20T12:44:15.944Z,36.88
2019-05-20T12:46:44.690Z,38.00
2019-05-20T12:49:13.738Z,39.60
2019-05-20T12:51:42.696Z,41.90
2019-05-20T12:54:11.436Z,38.80
2019-05-20T12:56:40.225Z,37.08
2019-05-20T12:59:09.149Z,34.75
2019-05-20T13:01:40.351Z,33.33
2019-05-20T13:04:09.180Z,30.85
2019-05-20T13:06:37.911Z,43.48
2019-05-20T13:09:07.617Z,35.30
2019-05-20T13:11:36.391Z,33.78
2019-05-20T13:14:05.210Z,31.57
2019-05-20T13:16:33.962Z,34.03
2019-05-20T13:19:02.717Z,35.95
2019-05-20T13:21:31.584Z,38.08
2019-05-20T13:24:00.308Z,40.03
2019-05-20T13:26:29.031Z,41.68
2019-05-20T13:28:59.575Z,38.80
2019-05-20T13:31:28.174Z,40.70
2019-05-20T13:33:56.913Z,43.23
2019-05-20T13:36:25.642Z,48.28
2019-05-20T13:38:54.463Z,47.67
2019-05-20T13:41:23.234Z,42.25
2019-05-20T13:43:51.986Z,46.28
2019-05-20T13:46:21.039Z,41.18
2019-05-20T13:48:49.918Z,38.28
2019-05-20T13:51:18.795Z,41.40
2019-05-20T13:53:47.500Z,40.83
2019-05-20T13:56:16.276Z,42.05
2019-05-20T13:58:44.995Z,40.75
2019-05-20T14:01:13.730Z,41.25
2019-05-20T14:03:42.493Z,32.63
2019-05-20T14:06:11.227Z,37.00
2019-05-20T14:08:39.977Z,35.63
2019-05-20T14:11:09.166Z,35.35
2019-05-20T14:13:38.029Z,36.85
2019-05-20T14:16:06.832Z,33.48
2019-05-20T14:18:35.589Z,37.48
2019-05-20T14:21:04.396Z,33.02
2019-05-20T14:23:33.126Z,34.90
2019-05-20T14:26:01.891Z,31.70
2019-05-20T14:28:30.738Z,31.87
2019-05-20T14:30:59.475Z,35.35
2019-05-20T14:33:28.240Z,34.63
2019-05-20T14:35:57.954Z,32.53
2019-05-20T14:38:26.761Z,35.35
2019-05-20T14:40:55.423Z,34.08
2019-05-20T14:47:11.142Z,36.23
2019-05-20T14:49:39.894Z,40.10
2019-05-20T14:52:08.697Z,41.80
2019-05-20T14:54:37.430Z,40.20
2019-05-20T14:57:06.168Z,42.53
2019-05-20T14:59:34.889Z,44.88
2019-05-20T15:02:03.707Z,46.02
2019-05-20T15:04:32.439Z,48.33
2019-05-20T15:07:01.303Z,56.08
2019-05-20T15:09:30.104Z,62.17
2019-05-20T15:11:58.861Z,57.30
2019-05-20T15:14:27.608Z,52.98
2019-05-20T15:16:56.392Z,50.45
2019-05-20T15:19:25.107Z,49.08
2019-05-20T15:21:53.857Z,51.37
2019-05-20T15:24:22.598Z,58.33
2019-05-20T15:26:51.688Z,59.27
2019-05-20T15:29:28.006Z,58.38
2019-05-20T15:31:51.174Z,52.43
2019-05-20T15:34:19.940Z,59.05
2019-05-20T15:36:50.293Z,57.65
2019-05-20T15:39:19.047Z,61.45
2019-05-20T15:41:47.772Z,66.80
2019-05-20T15:44:16.497Z,72.08
2019-05-20T15:46:45.244Z,81.30
2019-05-20T15:49:13.982Z,81.65
2019-05-20T15:51:42.711Z,77.17
2019-05-20T15:54:11.534Z,74.72
2019-05-20T15:56:40.286Z,83.80
2019-05-20T15:59:09.031Z,75.60
2019-05-20T16:01:38.027Z,59.23
2019-05-20T16:04:06.757Z,56.20
2019-05-20T16:06:35.499Z,52.43
2019-05-20T16:09:05.311Z,57.15
2019-05-20T16:11:34.069Z,49.73
2019-05-20T16:14:02.846Z,49.05
2019-05-20T16:16:31.584Z,48.90
2019-05-20T16:19:00.296Z,54.13
2019-05-20T16:21:28.992Z,49.85
2019-05-20T16:23:57.725Z,48.55
2019-05-20T16:26:29.853Z,47.88
2019-05-20T16:28:56.982Z,45.65
2019-05-20T16:31:25.784Z,49.77
2019-05-20T16:33:54.555Z,49.40
2019-05-20T16:36:23.322Z,54.55
2019-05-20T16:38:52.163Z,53.80
2019-05-20T16:41:20.938Z,49.08
2019-05-20T16:43:49.632Z,48.52
2019-05-20T16:46:18.381Z,58.28
2019-05-20T16:48:47.201Z,48.38
2019-05-20T16:51:15.973Z,48.02
2019-05-20T16:53:44.697Z,49.05
2019-05-20T16:56:13.450Z,49.23
2019-05-20T16:58:42.187Z,45.88
2019-05-20T17:01:10.932Z,60.35
2019-05-20T17:03:39.674Z,53.83
2019-05-20T17:06:08.411Z,50.92
2019-05-20T17:08:37.173Z,51.58
2019-05-20T17:11:05.891Z,44.40
2019-05-20T17:13:34.651Z,46.05
2019-05-20T17:16:03.411Z,43.70
2019-05-20T17:18:32.146Z,46.08
2019-05-20T17:21:00.955Z,49.65
2019-05-20T17:23:29.873Z,42.62
2019-05-20T17:25:58.678Z,49.80
2019-05-20T17:28:27.427Z,48.78
2019-05-20T17:30:56.153Z,51.30
2019-05-20T17:33:24.881Z,75.17
2019-05-20T17:35:53.635Z,81.95
2019-05-20T17:38:22.374Z,88.92
2019-05-20T17:40:51.283Z,82.22
2019-05-20T17:43:20.356Z,78.55
2019-05-20T17:45:49.124Z,72.67
2019-05-20T17:48:17.857Z,74.87
2019-05-20T17:50:46.609Z,71.80
2019-05-20T17:53:15.428Z,71.12
2019-05-20T17:55:44.183Z,79.30
2019-05-20T17:58:12.949Z,77.78
2019-05-20T18:00:41.681Z,79.75
2019-05-20T18:03:10.424Z,71.17
2019-05-20T18:05:39.226Z,72.50
2019-05-20T18:08:07.950Z,93.33
2019-05-20T18:10:36.715Z,102.78
2019-05-20T18:13:05.448Z,82.90
2019-05-20T18:15:34.191Z,115.12
2019-05-20T18:18:02.926Z,128.55
2019-05-20T18:20:31.709Z,110.85
2019-05-20T18:23:00.425Z,114.97
2019-05-20T18:25:29.162Z,107.83
2019-05-20T18:27:57.916Z,91.30
2019-05-20T18:30:26.803Z,83.10
2019-05-20T18:32:55.537Z,68.42
2019-05-20T18:35:24.317Z,75.87
2019-05-20T18:37:53.049Z,72.12
2019-05-20T18:40:21.782Z,62.23
2019-05-20T18:42:50.511Z,64.50
2019-05-20T18:45:19.327Z,64.75
2019-05-20T18:47:48.050Z,68.95
2019-05-20T18:50:17.432Z,63.42
2019-05-20T18:52:46.168Z,69.53
2019-05-20T18:55:14.991Z,69.45
2019-05-20T18:57:43.716Z,70.17
2019-05-20T19:00:14.722Z,74.45
2019-05-20T19:02:43.525Z,74.15
2019-05-20T19:05:12.527Z,76.00
2019-05-20T19:07:41.375Z,72.47
2019-05-20T19:10:11.084Z,72.92
2019-05-20T19:12:39.865Z,68.20
2019-05-20T19:15:08.961Z,71.85
2019-05-20T19:17:37.949Z,72.05
2019-05-20T19:20:07.390Z,78.85
2019-05-20T19:22:36.123Z,80.80
2019-05-20T19:25:06.913Z,80.03
2019-05-20T19:27:35.966Z,68.42
2019-05-20T19:30:06.355Z,66.28
2019-05-20T19:32:35.078Z,76.87
2019-05-20T19:35:08.331Z,92.90
2019-05-20T19:37:37.068Z,93.97
2019-05-20T19:40:07.131Z,98.87
2019-05-20T19:42:36.529Z,104.43
2019-05-20T19:45:05.843Z,113.65
2019-05-20T19:47:34.966Z,94.20
2019-05-20T19:50:07.913Z,84.00
2019-05-20T19:52:36.650Z,79.95
2019-05-20T19:55:08.643Z,77.92
2019-05-20T19:57:37.574Z,81.42
2019-05-20T20:00:08.094Z,75.47
2019-05-20T20:02:36.837Z,81.53
2019-05-20T20:05:07.625Z,70.35
2019-05-20T20:07:36.367Z,73.55
2019-05-20T20:10:06.038Z,82.53
2019-05-20T20:12:34.837Z,80.07
2019-05-20T20:15:05.605Z,78.80
2019-05-20T20:17:36.303Z,88.40
2019-05-20T20:20:05.882Z,80.03
2019-05-20T20:22:34.587Z,76.65
2019-05-20T20:25:04.167Z,83.90
2019-05-20T20:27:32.907Z,81.63
2019-05-20T20:30:04.724Z,93.03
2019-05-20T20:32:37.854Z,83.27
2019-05-20T20:35:04.954Z,84.75
2019-05-20T20:37:33.769Z,91.28
2019-05-20T20:40:02.525Z,93.33
2019-05-20T20:42:31.613Z,98.78
2019-05-20T20:45:00.341Z,100.07
2019-05-20T20:47:40.879Z,99.50
2019-05-20T20:49:59.446Z,97.30
2019-05-20T20:52:28.202Z,101.30
2019-05-20T20:54:56.950Z,106.72
2019-05-20T20:57:25.651Z,106.67
2019-05-20T20:59:54.330Z,117.30
2019-05-20T21:02:22.977Z,110.50
2019-05-20T21:04:52.111Z,113.22
2019-05-20T21:07:20.897Z,103.60
2019-05-20T21:09:49.625Z,109.72
2019-05-20T21:12:18.377Z,122.42
2019-05-20T21:14:47.129Z,110.72
2019-05-20T21:17:15.860Z,115.67
2019-05-20T21:19:44.666Z,113.30
2019-05-20T21:22:13.372Z,100.25
2019-05-20T21:24:42.131Z,105.55
2019-05-20T21:27:10.856Z,107.45
2019-05-20T21:29:39.614Z,98.62
2019-05-20T21:32:08.354Z,99.22
2019-05-20T21:34:37.144Z,105.07
2019-05-20T21:37:05.887Z,108.25
2019-05-20T21:39:34.651Z,105.25
2019-05-20T21:42:03.440Z,105.80
2019-05-20T21:44:32.186Z,106.32
2019-05-20T21:47:00.948Z,111.68
2019-05-20T21:49:29.693Z,107.22
2019-05-20T21:51:58.367Z,114.88
2019-05-20T21:54:27.292Z,105.85
2019-05-20T21:56:56.017Z,112.47
2019-05-20T21:59:24.694Z,112.50
2019-05-20T22:01:53.497Z,107.37
2019-05-20T22:04:22.252Z,118.35
2019-05-20T22:06:51.134Z,114.42
2019-05-20T22:09:19.964Z,124.75
2019-05-20T22:11:48.772Z,122.67
2019-05-20T22:14:17.500Z,114.05
2019-05-20T22:16:46.255Z,116.90
2019-05-20T22:19:14.939Z,115.72
2019-05-20T22:21:51.006Z,114.03
2019-05-20T22:24:19.757Z,115.05
2019-05-20T22:26:48.553Z,121.17
2019-05-20T22:29:17.304Z,121.80
2019-05-20T22:31:46.064Z,119.15
2019-05-20T22:34:14.797Z,129.12
2019-05-20T22:36:43.555Z,127.90
2019-05-20T22:39:12.367Z,113.80
2019-05-20T22:41:41.177Z,119.15
2019-05-20T22:44:09.920Z,144.45
2019-05-20T22:46:38.677Z,145.02
2019-05-20T22:49:07.414Z,154.38
2019-05-20T22:51:36.189Z,138.45
2019-05-20T22:54:04.914Z,141.95
2019-05-20T22:56:33.726Z,133.05
2019-05-20T22:59:02.470Z,129.85
2019-05-20T23:01:31.222Z,134.27
2019-05-20T23:03:59.976Z,136.62
2019-05-20T23:06:28.706Z,131.25
2019-05-20T23:08:57.433Z,125.47
2019-05-20T23:11:26.178Z,121.72
2019-05-20T23:13:54.901Z,126.65
2019-05-20T23:16:23.597Z,129.50
2019-05-20T23:18:52.321Z,131.78
2019-05-20T23:21:21.085Z,125.72
2019-05-20T23:23:49.837Z,145.17
2019-05-20T23:26:18.517Z,126.55
2019-05-20T23:28:47.251Z,132.03
2019-05-20T23:31:16.026Z,136.32
2019-05-20T23:33:44.749Z,150.70
2019-05-20T23:36:13.570Z,141.53
2019-05-20T23:38:42.326Z,137.77
2019-05-20T23:41:11.103Z,144.57
2019-05-20T23:43:39.833Z,139.20
2019-05-20T23:46:08.574Z,151.10
2019-05-20T23:48:37.311Z,150.97
2019-05-20T23:51:06.057Z,155.03
2019-05-20T23:53:34.818Z,151.65
2019-05-20T23:56:05.549Z,156.47
2019-05-20T23:58:34.284Z,141.55
